createdAt,value
2022-08-18T00:02:03.955Z,100878.22
2022-08-18T00:04:36.631Z,100877.41
2022-08-18T00:07:17.316Z,100876.59
2022-08-18T00:09:43.293Z,100878.22
2022-08-18T00:12:14.693Z,100884.63
2022-08-18T00:14:40.456Z,100888.53
2022-08-18T00:17:06.113Z,100881.00
2022-08-18T00:19:45.747Z,100894.94
2022-08-18T00:22:16.201Z,100896.06
2022-08-18T00:24:47.605Z,100898.84
2022-08-18T00:27:16.406Z,100910.81
2022-08-18T00:29:42.037Z,100901.66
2022-08-18T00:32:13.104Z,100906.41
2022-08-18T00:34:38.792Z,100898.84
2022-08-18T00:37:04.484Z,100899.69
2022-08-18T00:39:34.866Z,100897.22
2022-08-18T00:42:28.183Z,100900.81
2022-08-18T00:45:00.731Z,100900.81
2022-08-18T00:47:41.254Z,100897.22
2022-08-18T00:50:15.126Z,100889.69
2022-08-18T00:52:43.895Z,100900.00
2022-08-18T00:55:10.260Z,100898.03
2022-08-18T00:57:35.974Z,100897.22
2022-08-18T01:00:12.120Z,100888.06
2022-08-18T01:02:42.529Z,100891.66
2022-08-18T01:05:15.122Z,100887.22
2022-08-18T01:07:45.114Z,100885.25
2022-08-18T01:10:16.022Z,100894.44
2022-08-18T01:12:46.692Z,100896.41
2022-08-18T01:15:29.398Z,100888.88
2022-08-18T01:18:18.263Z,100882.47
2022-08-18T01:21:11.751Z,100890.03
2022-08-18T01:23:37.627Z,100882.81
2022-08-18T01:26:03.637Z,100877.25
2022-08-18T01:28:31.860Z,100878.06
2022-08-18T01:30:58.568Z,100883.63
2022-08-18T01:33:30.304Z,100876.38
2022-08-18T01:35:56.605Z,100874.47
2022-08-18T01:38:22.238Z,100881.97
2022-08-18T01:41:11.211Z,100889.19
2022-08-18T01:43:35.208Z,100895.88
2022-08-18T01:46:03.265Z,100907.03
2022-08-18T01:48:33.280Z,100897.84
2022-08-18T01:51:00.112Z,100909.00
2022-08-18T01:53:26.525Z,100912.59
2022-08-18T01:55:52.353Z,100911.78
2022-08-18T01:58:17.994Z,100917.34
2022-08-18T02:00:43.633Z,100916.53
2022-08-18T02:03:12.164Z,100907.88
2022-08-18T02:05:42.720Z,100911.78
2022-08-18T02:08:08.456Z,100923.72
2022-08-18T02:10:34.599Z,100924.88
2022-08-18T02:13:00.907Z,100919.31
2022-08-18T02:15:27.319Z,100918.50
2022-08-18T02:17:53.202Z,100917.69
2022-08-18T02:20:19.487Z,100917.69
2022-08-18T02:22:47.658Z,100921.28
2022-08-18T02:25:14.413Z,100918.50
2022-08-18T02:27:40.083Z,100901.78
2022-08-18T02:30:09.255Z,100894.56
2022-08-18T02:32:34.907Z,100882.63
2022-08-18T02:35:00.614Z,100880.66
2022-08-18T02:37:26.234Z,100881.47
2022-08-18T02:39:51.905Z,100875.09
2022-08-18T02:42:17.734Z,100872.31
2022-08-18T02:44:43.616Z,100877.06
2022-08-18T02:47:09.581Z,100877.88
2022-08-18T02:49:36.450Z,100880.66
2022-08-18T02:52:02.885Z,100882.63
2022-08-18T02:54:28.511Z,100885.06
2022-08-18T02:56:56.267Z,100880.97
2022-08-18T02:59:24.014Z,100872.31
2022-08-18T03:01:52.235Z,100874.28
2022-08-18T03:04:24.006Z,100873.44
2022-08-18T03:06:51.011Z,100876.22
2022-08-18T03:09:17.158Z,100870.66
2022-08-18T03:11:43.600Z,100867.88
2022-08-18T03:14:11.458Z,100859.53
2022-08-18T03:16:38.359Z,100870.66
2022-08-18T03:19:04.099Z,100871.78
2022-08-18T03:21:31.119Z,100869.81
2022-08-18T03:24:01.050Z,100874.28
2022-08-18T03:26:28.874Z,100873.75
2022-08-18T03:28:55.187Z,100874.56
2022-08-18T03:31:22.534Z,100880.13
2022-08-18T03:33:51.048Z,100877.34
2022-08-18T03:36:19.369Z,100877.34
2022-08-18T03:38:45.458Z,100870.97
2022-08-18T03:41:43.782Z,100880.97
2022-08-18T03:44:05.681Z,100876.53
2022-08-18T03:46:31.697Z,100881.28
2022-08-18T03:48:58.679Z,100881.28
2022-08-18T03:51:26.322Z,100876.53
2022-08-18T03:53:54.002Z,100886.84
2022-08-18T03:56:23.137Z,100888.81
2022-08-18T03:58:52.622Z,100881.28
2022-08-18T04:01:26.246Z,100880.47
2022-08-18T04:03:55.841Z,100886.03
2022-08-18T04:06:30.166Z,100881.28
2022-08-18T04:08:58.466Z,100883.25
2022-08-18T04:11:24.461Z,100879.66
2022-08-18T04:13:50.634Z,100880.47
2022-08-18T04:16:16.489Z,100872.13
2022-08-18T04:18:42.153Z,100876.88
2022-08-18T04:21:10.039Z,100880.47
2022-08-18T04:23:43.818Z,100888.00
2022-08-18T04:26:11.870Z,100889.97
2022-08-18T04:28:45.346Z,100892.75
2022-08-18T04:31:13.042Z,100885.22
2022-08-18T04:33:39.012Z,100888.00
2022-08-18T04:36:13.910Z,100886.84
2022-08-18T04:38:46.395Z,100884.41
2022-08-18T04:41:12.629Z,100883.25
2022-08-18T04:43:38.807Z,100890.47
2022-08-18T04:46:06.163Z,100885.22
2022-08-18T04:48:34.098Z,100884.41
2022-08-18T04:51:08.212Z,100881.28
2022-08-18T04:53:49.315Z,100886.03
2022-08-18T04:56:31.598Z,100889.97
2022-08-18T04:58:59.654Z,100896.34
2022-08-18T05:01:26.731Z,100905.53
2022-08-18T05:03:53.732Z,100901.91
2022-08-18T05:06:24.413Z,100908.31
2022-08-18T05:08:52.548Z,100910.28
2022-08-18T05:11:18.266Z,100907.81
2022-08-18T05:13:43.904Z,100910.28
2022-08-18T05:16:13.280Z,100905.84
2022-08-18T05:18:42.770Z,100914.22
2022-08-18T05:21:13.607Z,100920.59
2022-08-18T05:23:41.579Z,100915.84
2022-08-18T05:26:07.928Z,100917.81
2022-08-18T05:28:36.534Z,100917.47
2022-08-18T05:31:11.788Z,100923.38
2022-08-18T05:33:39.534Z,100923.94
2022-08-18T05:36:16.030Z,100925.50
2022-08-18T05:39:11.730Z,100925.22
2022-08-18T05:41:39.743Z,100931.34
2022-08-18T05:44:06.031Z,100937.06
2022-08-18T05:46:38.315Z,100925.44
2022-08-18T05:49:04.034Z,100925.91
2022-08-18T05:51:35.575Z,100932.16
2022-08-18T05:54:22.203Z,100933.19
2022-08-18T05:56:49.342Z,100942.06
2022-08-18T05:59:19.814Z,100944.50
2022-08-18T06:01:51.206Z,100946.97
2022-08-18T06:04:26.306Z,100948.63
2022-08-18T06:06:52.223Z,100947.50
2022-08-18T06:09:23.582Z,100956.66
2022-08-18T06:11:49.955Z,100955.91
2022-08-18T06:14:15.677Z,100957.09
2022-08-18T06:16:53.654Z,100953.34
2022-08-18T06:19:39.084Z,100960.59
2022-08-18T06:22:19.231Z,100962.56
2022-08-18T06:25:09.177Z,100968.63
2022-08-18T06:28:02.237Z,100972.22
2022-08-18T06:31:03.367Z,100973.84
2022-08-18T06:34:02.161Z,100968.81
2022-08-18T06:36:55.120Z,100968.00
2022-08-18T06:39:31.646Z,100971.94
2022-08-18T06:41:57.317Z,100976.34
2022-08-18T06:44:41.992Z,100980.78
2022-08-18T06:47:15.241Z,100975.19
2022-08-18T06:49:53.969Z,100981.25
2022-08-18T06:52:23.464Z,100988.50
2022-08-18T06:54:51.900Z,100983.75
2022-08-18T06:57:31.933Z,100989.31
2022-08-18T07:02:59.430Z,100990.13
2022-08-18T07:05:27.402Z,100996.53
2022-08-18T07:10:41.026Z,100981.78
2022-08-18T07:13:25.579Z,100985.38
2022-08-18T07:15:54.157Z,100981.78
2022-08-18T07:18:26.774Z,100987.34
2022-08-18T07:20:59.533Z,100998.16
2022-08-18T07:23:30.135Z,100990.13
2022-08-18T07:26:16.341Z,100988.50
2022-08-18T07:28:46.765Z,100987.34
2022-08-18T07:31:25.417Z,100990.13
2022-08-18T07:33:56.844Z,100988.50
2022-08-18T07:36:24.801Z,100985.38
2022-08-18T07:38:56.286Z,100982.59
2022-08-18T07:41:26.903Z,100979.00
2022-08-18T07:44:04.480Z,100987.34
2022-08-18T07:46:38.559Z,100981.78
2022-08-18T07:49:06.204Z,100967.84
2022-08-18T07:51:53.156Z,100969.81
2022-08-18T07:57:20.050Z,100965.06
2022-08-18T07:59:53.868Z,100964.56
2022-08-18T08:05:20.870Z,100974.88
2022-08-18T08:07:51.029Z,100983.75
2022-08-18T08:10:32.861Z,100982.94
2022-08-18T08:13:43.772Z,100977.03
2022-08-18T08:16:16.934Z,100976.69
2022-08-18T08:21:32.998Z,100989.00
2022-08-18T08:24:13.019Z,100994.25
2022-08-18T08:27:05.891Z,101006.22
2022-08-18T08:29:41.503Z,101002.09
2022-08-18T08:32:13.554Z,101004.56
2022-08-18T08:34:49.558Z,101005.91
2022-08-18T08:37:19.674Z,101014.75
2022-08-18T08:39:56.928Z,101009.69
2022-08-18T08:42:38.646Z,101007.22
2022-08-18T08:45:09.369Z,101011.97
2022-08-18T08:47:40.568Z,101020.63
2022-08-18T08:50:12.654Z,101013.44
2022-08-18T08:52:48.400Z,101020.16
2022-08-18T08:55:17.999Z,101019.94
2022-08-18T08:57:49.782Z,101017.38
2022-08-18T09:00:15.649Z,101010.66
2022-08-18T09:03:30.525Z,101011.78
2022-08-18T09:06:09.613Z,101004.75
2022-08-18T09:09:07.509Z,101011.13
2022-08-18T09:12:03.914Z,101005.56
2022-08-18T09:14:52.147Z,101000.81
2022-08-18T09:17:42.089Z,100998.88
2022-08-18T09:20:34.791Z,100999.69
2022-08-18T09:23:08.380Z,100996.09
2022-08-18T09:28:22.659Z,100993.59
2022-08-18T09:36:46.889Z,101002.16
2022-08-18T09:43:03.073Z,100995.44
2022-08-18T09:45:41.812Z,100994.31
2022-08-18T09:56:54.109Z,100993.78
2022-08-18T10:02:37.000Z,100997.72
2022-08-18T10:05:24.441Z,101009.69
2022-08-18T10:07:53.360Z,101007.22
2022-08-18T10:10:59.983Z,101015.25
2022-08-18T10:13:48.944Z,101013.91
2022-08-18T10:16:42.027Z,101010.84
2022-08-18T10:19:39.324Z,101000.00
2022-08-18T10:22:08.558Z,101000.81
2022-08-18T10:24:38.213Z,100996.91
2022-08-18T10:27:07.350Z,100994.44
2022-08-18T10:29:50.581Z,100990.53
2022-08-18T10:32:22.118Z,100996.38
2022-08-18T10:34:52.842Z,100995.25
2022-08-18T10:37:39.343Z,100989.66
2022-08-18T10:40:14.542Z,100989.38
2022-08-18T10:42:56.370Z,100996.91
2022-08-18T10:45:32.162Z,100997.72
2022-08-18T10:48:17.128Z,100985.78
2022-08-18T10:50:55.337Z,100985.78
2022-08-18T10:54:00.787Z,100983.81
2022-08-18T10:56:34.596Z,100989.38
2022-08-18T10:59:17.145Z,100976.59
2022-08-18T11:04:59.359Z,100979.38
2022-08-18T11:07:28.631Z,100975.25
2022-08-18T11:10:04.903Z,100975.75
2022-08-18T11:13:20.866Z,100965.47
2022-08-18T11:16:14.560Z,100960.69
2022-08-18T11:18:44.937Z,100956.78
2022-08-18T11:21:43.813Z,100960.69
2022-08-18T11:24:14.765Z,100960.38
2022-08-18T11:26:53.715Z,100961.19
2022-08-18T11:29:39.682Z,100960.88
2022-08-18T11:32:11.926Z,100960.88
2022-08-18T11:34:52.877Z,100953.34
2022-08-18T11:37:26.518Z,100948.91
2022-08-18T11:39:55.685Z,100945.81
2022-08-18T11:42:33.090Z,100936.63
2022-08-18T11:45:13.492Z,100940.25
2022-08-18T11:47:59.022Z,100940.25
2022-08-18T11:50:28.402Z,100938.59
2022-08-18T11:52:56.178Z,100940.25
2022-08-18T11:55:32.848Z,100941.06
2022-08-18T11:57:59.769Z,100942.22
2022-08-18T12:03:29.226Z,100935.50
2022-08-18T12:05:59.812Z,100936.31
2022-08-18T12:08:57.308Z,100930.75
2022-08-18T12:11:26.893Z,100925.16
2022-08-18T12:14:29.816Z,100928.78
2022-08-18T12:16:59.679Z,100925.66
2022-08-18T12:19:29.769Z,100928.78
2022-08-18T12:21:59.421Z,100935.16
2022-08-18T12:24:29.386Z,100936.63
2022-08-18T12:27:02.178Z,100949.56
2022-08-18T12:29:46.189Z,100946.97
2022-08-18T12:32:17.761Z,100964.16
2022-08-18T12:35:05.377Z,100964.16
2022-08-18T12:37:58.342Z,100973.00
2022-08-18T12:40:19.304Z,100990.56
2022-08-18T12:42:44.975Z,100997.25
2022-08-18T12:45:13.346Z,101001.72
2022-08-18T12:47:40.179Z,100998.41
2022-08-18T12:50:08.398Z,100990.88
2022-08-18T12:52:36.296Z,101002.84
2022-08-18T12:55:01.942Z,100995.28
2022-08-18T12:57:51.690Z,100989.03
2022-08-18T13:00:17.548Z,100977.75
2022-08-18T13:02:44.262Z,100974.69
2022-08-18T13:05:10.839Z,100970.22
2022-08-18T13:07:38.025Z,100967.97
2022-08-18T13:10:03.698Z,100961.56
2022-08-18T13:12:29.233Z,100948.78
2022-08-18T13:14:54.829Z,100940.44
2022-08-18T13:17:30.239Z,100945.16
2022-08-18T13:20:00.411Z,100934.84
2022-08-18T13:22:32.430Z,100928.44
2022-08-18T13:24:58.537Z,100932.06
2022-08-18T13:27:24.220Z,100930.59
2022-08-18T13:29:51.047Z,100931.75
2022-08-18T13:32:17.734Z,100928.97
2022-08-18T13:34:49.904Z,100922.25
2022-08-18T13:37:17.145Z,100925.66
2022-08-18T13:39:46.067Z,100913.41
2022-08-18T13:42:26.110Z,100911.09
2022-08-18T13:44:57.413Z,100897.50
2022-08-18T13:47:23.455Z,100890.28
2022-08-18T13:49:57.966Z,100881.59
2022-08-18T13:52:34.133Z,100876.03
2022-08-18T13:55:00.893Z,100875.22
2022-08-18T13:57:26.430Z,100878.81
2022-08-18T13:59:51.972Z,100869.63
2022-08-18T14:02:17.539Z,100878.00
2022-08-18T14:04:44.327Z,100890.78
2022-08-18T14:07:11.112Z,100891.94
2022-08-18T14:09:38.215Z,100894.00
2022-08-18T14:12:05.211Z,100889.19
2022-08-18T14:14:30.941Z,100890.25
2022-08-18T14:16:57.233Z,100891.25
2022-08-18T14:19:42.679Z,100896.97
2022-08-18T14:22:28.442Z,100896.16
2022-08-18T14:25:14.025Z,100898.31
2022-08-18T14:27:39.570Z,100897.50
2022-08-18T14:30:07.688Z,100898.31
2022-08-18T14:32:36.185Z,100889.13
2022-08-18T14:35:32.014Z,100885.19
2022-08-18T14:37:48.490Z,100888.00
2022-08-18T14:40:14.593Z,100880.44
2022-08-18T14:42:53.878Z,100889.63
2022-08-18T14:45:34.084Z,100885.72
2022-08-18T14:48:02.026Z,100887.66
2022-08-18T14:50:32.363Z,100887.66
2022-08-18T14:52:59.004Z,100884.06
2022-08-18T14:55:26.810Z,100886.53
2022-08-18T14:57:52.492Z,100893.22
2022-08-18T15:00:22.502Z,100892.09
2022-08-18T15:02:48.406Z,100887.34
2022-08-18T15:05:19.577Z,100888.19
2022-08-18T15:07:45.520Z,100888.50
2022-08-18T15:10:14.525Z,100877.38
2022-08-18T15:12:42.671Z,100868.16
2022-08-18T15:15:12.140Z,100869.00
2022-08-18T15:17:42.335Z,100872.59
2022-08-18T15:20:08.796Z,100875.06
2022-08-18T15:22:59.581Z,100885.06
2022-08-18T15:25:45.152Z,100874.25
2022-08-18T15:28:16.194Z,100875.41
2022-08-18T15:30:43.787Z,100871.47
2022-08-18T15:33:11.056Z,100874.25
2022-08-18T15:35:44.236Z,100875.06
2022-08-18T15:38:11.774Z,100881.44
2022-08-18T15:40:41.464Z,100875.88
2022-08-18T15:43:10.076Z,100869.50
2022-08-18T15:45:43.253Z,100882.28
2022-08-18T15:48:17.067Z,100887.03
2022-08-18T15:50:43.868Z,100889.50
2022-08-18T15:53:17.659Z,100890.31
2022-08-18T15:55:43.208Z,100881.97
2022-08-18T15:58:10.844Z,100879.19
2022-08-18T16:00:37.225Z,100880.31
2022-08-18T16:03:04.080Z,100873.91
2022-08-18T16:05:36.566Z,100882.28
2022-08-18T16:08:02.703Z,100882.28
2022-08-18T16:10:31.396Z,100875.88
2022-08-18T16:12:56.976Z,100869.50
2022-08-18T16:15:23.428Z,100861.75
2022-08-18T16:17:49.752Z,100869.00
2022-08-18T16:20:15.390Z,100865.69
2022-08-18T16:22:41.061Z,100856.19
2022-08-18T16:25:07.299Z,100857.34
2022-08-18T16:27:34.505Z,100858.16
2022-08-18T16:30:00.187Z,100843.41
2022-08-18T16:32:25.752Z,100839.00
2022-08-18T16:34:51.712Z,100849.31
2022-08-18T16:37:17.741Z,100844.56
2022-08-18T16:39:43.478Z,100841.78
2022-08-18T16:42:10.057Z,100843.75
2022-08-18T16:44:35.641Z,100853.75
2022-08-18T16:47:03.463Z,100850.13
2022-08-18T16:49:29.021Z,100852.09
2022-08-18T16:51:54.566Z,100839.28
2022-08-18T16:54:20.097Z,100842.94
2022-08-18T16:56:45.651Z,100842.09
2022-08-18T17:02:21.547Z,100844.88
2022-08-18T17:04:47.103Z,100842.09
2022-08-18T17:07:12.648Z,100826.22
2022-08-18T17:09:38.387Z,100832.09
2022-08-18T17:12:04.376Z,100830.13
2022-08-18T17:14:29.959Z,100835.38
2022-08-18T17:16:55.913Z,100829.31
2022-08-18T17:19:22.259Z,100823.72
2022-08-18T17:21:47.805Z,100835.69
2022-08-18T17:24:13.835Z,100835.69
2022-08-18T17:26:45.331Z,100831.28
2022-08-18T17:29:17.545Z,100820.47
2022-08-18T17:31:43.515Z,100826.53
2022-08-18T17:34:10.191Z,100827.66
2022-08-18T17:36:42.296Z,100825.69
2022-08-18T17:39:19.663Z,100823.25
2022-08-18T17:42:05.105Z,100812.09
2022-08-18T17:44:31.496Z,100818.50
2022-08-18T17:46:57.649Z,100819.31
2022-08-18T17:50:28.011Z,100813.75
2022-08-18T17:52:54.303Z,100819.66
2022-08-18T17:55:23.946Z,100823.25
2022-08-18T17:57:58.444Z,100819.66
2022-08-18T18:00:24.473Z,100837.19
2022-08-18T18:02:50.004Z,100832.75
2022-08-18T18:05:16.771Z,100829.97
2022-08-18T18:10:24.842Z,100835.84
2022-08-18T18:13:04.273Z,100831.09
2022-08-18T18:15:30.882Z,100831.09
2022-08-18T18:17:56.423Z,100826.34
2022-08-18T18:20:24.986Z,100823.56
2022-08-18T18:22:51.188Z,100825.53
2022-08-18T18:25:30.382Z,100823.56
2022-08-18T18:28:00.622Z,100824.69
2022-08-18T18:30:28.947Z,100824.69
2022-08-18T18:32:59.881Z,100811.59
2022-08-18T18:35:27.781Z,100817.16
2022-08-18T18:37:55.527Z,100816.34
2022-08-18T18:40:23.994Z,100820.28
2022-08-18T18:42:49.731Z,100814.72
2022-08-18T18:45:30.442Z,100823.88
2022-08-18T18:48:00.762Z,100825.03
2022-08-18T18:50:30.196Z,100825.84
2022-08-18T18:52:58.914Z,100836.19
2022-08-18T18:55:26.098Z,100837.00
2022-08-18T18:58:11.516Z,100840.59
2022-08-18T19:00:41.086Z,100842.56
2022-08-18T19:03:11.598Z,100848.13
2022-08-18T19:05:39.410Z,100846.50
2022-08-18T19:08:06.374Z,100847.31
2022-08-18T19:10:34.287Z,100847.31
2022-08-18T19:13:00.881Z,100855.66
2022-08-18T19:15:26.422Z,100858.75
2022-08-18T19:17:53.437Z,100852.06
2022-08-18T19:20:27.194Z,100856.81
2022-08-18T19:25:43.738Z,100858.75
2022-08-18T19:28:29.610Z,100860.44
2022-08-18T19:30:55.583Z,100866.31
2022-08-18T19:33:26.225Z,100871.88
2022-08-18T19:36:03.459Z,100863.50
2022-08-18T19:38:49.350Z,100869.09
2022-08-18T19:41:19.772Z,100869.09
2022-08-18T19:43:51.082Z,100868.28
2022-08-18T19:46:21.125Z,100869.41
2022-08-18T19:48:51.918Z,100873.03
2022-08-18T19:51:26.639Z,100872.19
2022-08-18T19:53:56.869Z,100872.19
2022-08-18T19:56:29.175Z,100871.38
2022-08-18T19:59:17.944Z,100867.44
2022-08-18T20:01:51.179Z,100866.63
2022-08-18T20:04:26.546Z,100866.16
2022-08-18T20:07:13.704Z,100860.56
2022-08-18T20:09:49.169Z,100864.66
2022-08-18T20:12:36.628Z,100869.75
2022-08-18T20:15:22.191Z,100872.53
2022-08-18T20:18:08.485Z,100876.94
2022-08-18T20:20:37.256Z,100874.50
2022-08-18T20:23:22.680Z,100872.53
2022-08-18T20:25:49.120Z,100871.72
2022-08-18T20:28:18.974Z,100871.72
2022-08-18T20:31:05.504Z,100868.94
2022-08-18T20:33:35.372Z,100877.59
2022-08-18T20:36:10.600Z,100884.78
2022-08-18T20:38:37.708Z,100880.38
2022-08-18T20:41:25.596Z,100884.78
2022-08-18T20:43:52.559Z,100875.63
2022-08-18T20:46:30.601Z,100878.41
2022-08-18T20:49:19.159Z,100881.19
2022-08-18T20:51:52.393Z,100884.78
2022-08-18T20:54:38.040Z,100885.94
2022-08-18T20:57:08.899Z,100885.94
2022-08-18T20:59:35.545Z,100885.94
2022-08-18T21:02:02.498Z,100894.28
2022-08-18T21:04:47.996Z,100885.13
2022-08-18T21:07:17.598Z,100892.31
2022-08-18T21:09:47.787Z,100891.50
2022-08-18T21:12:18.774Z,100893.47
2022-08-18T21:14:44.324Z,100890.19
2022-08-18T21:17:13.336Z,100897.41
2022-08-18T21:19:39.551Z,100904.63
2022-08-18T21:22:05.081Z,100895.44
2022-08-18T21:24:34.847Z,100896.59
2022-08-18T21:27:05.547Z,100897.41
2022-08-18T21:29:44.306Z,100885.44
2022-08-18T21:32:17.299Z,100879.06
2022-08-18T21:34:45.131Z,100883.78
2022-08-18T21:37:11.635Z,100884.63
2022-08-18T21:39:53.705Z,100883.50
2022-08-18T21:42:21.104Z,100888.25
2022-08-18T21:44:46.845Z,100879.06
2022-08-18T21:47:14.874Z,100882.97
2022-08-18T21:49:41.701Z,100893.28
2022-08-18T21:52:07.250Z,100899.69
2022-08-18T21:54:34.613Z,100894.09
2022-08-18T21:57:17.468Z,100898.56
2022-08-18T22:00:02.901Z,100894.09
2022-08-18T22:02:28.440Z,100891.31
2022-08-18T22:04:53.986Z,100894.09
2022-08-18T22:07:34.670Z,100890.50
2022-08-18T22:10:25.860Z,100895.25
2022-08-18T22:13:12.264Z,100898.84
2022-08-18T22:15:40.089Z,100898.03
2022-08-18T22:18:25.565Z,100896.06
2022-08-18T22:20:55.542Z,100911.16
2022-08-18T22:23:56.994Z,100899.19
2022-08-18T22:26:26.690Z,100898.38
2022-08-18T22:28:57.569Z,100901.97
2022-08-18T22:31:23.930Z,100906.41
2022-08-18T22:33:52.361Z,100914.75
2022-08-18T22:36:19.227Z,100902.78
2022-08-18T22:38:44.998Z,100900.00
2022-08-18T22:41:10.610Z,100901.16
2022-08-18T22:43:36.623Z,100902.78
2022-08-18T22:46:02.239Z,100909.50
2022-08-18T22:48:27.982Z,100913.13
2022-08-18T22:50:53.517Z,100918.69
2022-08-18T22:53:19.071Z,100917.03
2022-08-18T22:55:44.684Z,100914.25
2022-08-18T22:58:10.650Z,100917.03
2022-08-18T23:00:36.705Z,100914.25
2022-08-18T23:03:02.694Z,100909.00
2022-08-18T23:05:28.285Z,100912.59
2022-08-18T23:07:53.870Z,100919.84
2022-08-18T23:10:19.499Z,100919.84
2022-08-18T23:12:45.887Z,100918.16
2022-08-18T23:15:11.949Z,100911.78
2022-08-18T23:17:38.136Z,100920.13
2022-08-18T23:20:04.242Z,100911.78
2022-08-18T23:22:29.780Z,100910.13
2022-08-18T23:24:55.325Z,100914.56
2022-08-18T23:27:20.936Z,100909.00
2022-08-18T23:29:47.901Z,100909.81
2022-08-18T23:32:13.582Z,100919.31
2022-08-18T23:34:39.117Z,100916.53
2022-08-18T23:37:04.681Z,100920.13
2022-08-18T23:39:31.058Z,100919.31
2022-08-18T23:41:57.057Z,100922.09
2022-08-18T23:44:23.777Z,100921.28
2022-08-18T23:46:53.158Z,100919.31
2022-08-18T23:49:18.738Z,100920.47
2022-08-18T23:51:45.258Z,100919.31
2022-08-18T23:54:16.781Z,100921.28
2022-08-18T23:56:42.509Z,100923.25
2022-08-18T23:59:08.166Z,100926.03
